Nearby METAR Reports

 

NZCH - Christchurch Int, New Zealand
Distance from station: W 10km
Updated: 26 Aug 2019 17:30
Light rain, Overcast
Light rain, Overcast
 Wind from SW
Wind: SW 19 km/h
Temperature: 9°C
Wind Chill: 6°C
Dew Point: 7°C
Humidity: 87%
Barometer: 1004 hPa
Summary: Light rain
Clouds: Overcast
Visibility: 10 km
Cloud details: Partly cloudy 427 m
Mostly cloudy 610 m
Overcast 2286 m
2019/08/26 05:30 NZCH 260530Z AUTO 22010KT 9999 -RA SCT014/// BKN020/// OVC075/// 09/07 Q1004 TEMPO 4000 SHRA BKN012